Latest Weather Observations for Wilcannia Airport

IDN60801

Issued at 12:02 pm EDT Friday 24 February 2017 (issued every 30 minutes, with the page automatically refreshed every 10 minutes)

About weather observations | Map of weather stations | Latest weather observations for NSW | Other Formats
Station Details ID: 046012 Name: WILCANNIA AERODROME AWS Lat: -31.52 Lon: 143.38 Height: 94.3 m
Data from the previous 72 hours. | See also: Recent months at Wilcannia Airport
Date/Time
EDT
Temp
°C
App
Temp
°C
Dew
Point
°C
Rel
Hum
%
Delta-T
°C
Wind Press
QNH
hPa
Press
MSL
hPa
Rain since
9am
mm
Dir  Spd
km/h
Gust
km/h
Spd
kts
Gust
kts
24/12:00pm 29.9 25.6 9.4 28 11.5 SSE 22 33 12 18 1020.7 1020.2 0.0
24/11:30am 28.8 24.2 9.5 30 10.8 S 24 33 13 18 1021.1 1020.6 0.0
24/11:00am 27.3 22.6 9.2 32 10.0 S 24 33 13 18 1021.4 1020.9 0.0
24/10:30am 25.8 21.1 9.2 35 9.1 S 24 32 13 17 1021.4 1020.9 0.0
24/10:00am 25.1 20.4 9.4 37 8.6 S 24 32 13 17 1021.3 1020.8 0.0
24/09:30am 24.2 19.5 9.4 39 8.1 S 24 35 13 19 1021.3 1020.8 0.0
24/09:00am 23.1 18.7 9.1 41 7.5 S 22 32 12 17 1021.0 1020.5 0.0
24/08:30am 22.2 18.2 9.0 43 7.1 S 20 32 11 17 1020.7 1020.2 0.0
24/08:00am 21.2 16.7 8.5 44 6.7 S 22 30 12 16 1020.5 1020.0 0.0
24/07:30am 20.7 16.6 8.0 44 6.6 S 19 24 10 13 1020.1 1019.6 0.0
24/07:00am 21.1 16.8 8.0 43 6.8 S 20 28 11 15 1019.7 1019.2 0.0
24/06:30am 21.4 17.6 7.6 41 7.2 S 17 24 9 13 1019.4 1018.8 0.0
24/06:00am 21.0 17.5 7.3 41 7.0 S 15 19 8 10 1018.9 1018.3 0.0
24/05:30am 21.2 18.0 6.7 39 7.4 S 13 17 7 9 1018.6 1018.0 0.0
24/05:00am 22.2 18.5 6.4 36 8.1 S 15 19 8 10 1018.3 1017.7 0.0
24/04:30am 23.2 19.2 6.5 34 8.6 S 17 24 9 13 1018.0 1017.4 0.0
24/04:00am 23.4 19.3 6.2 33 8.8 SSW 17 24 9 13 1017.9 1017.3 0.0
24/03:30am 23.9 19.4 6.2 32 9.1 SSW 19 26 10 14 1017.9 1017.3 0.0
24/03:00am 24.5 19.5 6.3 31 9.4 SSW 22 30 12 16 1017.8 1017.2 0.0
24/02:30am 25.2 19.7 5.9 29 9.9 SSW 24 32 13 17 1017.9 1017.3 0.0
24/02:00am 25.5 20.4 6.2 29 10.0 SSW 22 30 12 16 1017.9 1017.3 0.0
24/01:30am 26.3 20.9 6.4 28 10.4 SSW 24 33 13 18 1017.9 1017.3 0.0
24/01:00am 26.5 21.9 6.5 28 10.5 SSW 20 30 11 16 1018.0 1017.4 0.0
24/12:30am 25.6 21.1 6.3 29 10.0 SSW 19 24 10 13 1017.9 1017.3 0.0
24/12:00am 25.2 21.2 4.9 27 10.3 SW 15 19 8 10 1017.9 1017.3 0.0
 
Date/Time
EDT
Temp
°C
App
Temp
°C
Dew
Point
°C
Rel
Hum
%
Delta-T
°C
Wind Press
QNH
hPa
Press
MSL
hPa
Rain since
9am
mm
Dir  Spd
km/h
Gust
km/h
Spd
kts
Gust
kts
23/11:30pm 25.4 21.8 5.1 27 10.3 SW 13 17 7 9 1017.9 1017.3 0.0
23/11:00pm 24.9 21.1 4.1 26 10.3 SW 13 17 7 9 1017.7 1017.1 0.0
23/10:30pm 25.5 21.7 4.0 25 10.7 SSW 13 15 7 8 1017.6 1017.0 0.0
23/10:00pm 26.1 22.3 4.0 24 11.1 SSW 13 15 7 8 1017.4 1016.8 0.0
23/09:30pm 27.3 23.8 3.7 22 11.9 SSW 11 13 6 7 1017.1 1016.5 0.0
23/09:00pm 29.2 25.6 3.2 19 13.1 SSW 11 15 6 8 1016.7 1016.1 0.0
23/08:30pm 30.9 26.4 2.2 16 14.4 SSW 15 17 8 9 1016.3 1015.7 0.0
23/08:00pm 32.7 27.5 2.7 15 15.3 SSW 19 24 10 13 1015.9 1015.3 0.0
23/07:30pm 34.3 29.0 3.0 14 16.2 SSW 20 26 11 14 1015.6 1015.0 0.0
23/07:00pm 35.4 30.3 2.8 13 16.9 SSW 19 26 10 14 1015.4 1014.8 0.0
23/06:30pm 36.3 31.1 3.5 13 17.3 SSW 20 28 11 15 1015.1 1014.5 0.0
23/06:00pm 36.6 32.0 3.7 13 17.5 SSW 17 28 9 15 1014.9 1014.3 0.0
23/05:30pm 36.3 31.1 3.5 13 17.3 S 20 30 11 16 1015.0 1014.4 0.0
23/05:00pm 36.3 31.7 3.5 13 17.3 S 17 30 9 16 1015.1 1014.5 0.0
23/04:30pm 36.5 31.5 3.7 13 17.4 SSW 19 30 10 16 1015.3 1014.7 0.0
23/04:00pm 35.8 31.3 4.2 14 16.8 SW 17 33 9 18 1015.5 1014.9 0.0
23/03:30pm 35.4 30.6 4.8 15 16.4 SSW 19 28 10 15 1015.9 1015.3 0.0
23/03:00pm 34.9 30.4 4.4 15 16.2 SSW 17 24 9 13 1016.1 1015.5 0.0
23/02:30pm 34.9 30.1 5.4 16 15.9 SSW 20 32 11 17 1016.3 1015.7 0.0
23/02:00pm 33.4 28.9 4.2 16 15.3 S 17 28 9 15 1016.6 1016.0 0.0
23/01:30pm 33.1 28.1 4.8 17 15.0 SSE 20 28 11 15 1016.8 1016.2 0.0
23/01:00pm 31.7 27.2 6.0 20 13.8 SSE 19 26 10 14 1017.1 1016.5 0.0
23/12:30pm 31.2 26.7 6.3 21 13.4 SSE 19 32 10 17 1017.4 1016.8 0.0
23/12:00pm 30.3 25.5 5.6 21 13.0 SSE 20 28 11 15 1017.7 1017.1 0.0
23/11:30am 28.6 23.5 6.1 24 11.9 SSE 22 35 12 19 1017.8 1017.2 0.0
23/11:00am 27.9 22.8 6.1 25 11.4 SSE 22 35 12 19 1017.8 1017.2 0.0
23/10:30am 27.4 22.5 6.8 27 10.9 S 22 33 12 18 1017.7 1017.1 0.0
23/10:00am 25.9 20.5 6.5 29 10.1 SSE 24 35 13 19 1017.7 1017.1 0.0
23/09:30am 24.9 18.8 6.6 31 9.5 S 28 39 15 21 1017.3 1016.7 0.0
23/09:00am 23.8 18.0 6.1 32 9.1 S 26 39 14 21 1017.1 1016.5 0.0
23/08:30am 22.9 17.6 4.9 31 9.0 S 22 32 12 17 1016.9 1016.3 0.0
23/08:00am 22.2 16.5 4.7 32 8.6 SSW 24 37 13 20 1016.4 1015.8 0.0
23/07:30am 21.8 16.1 4.8 33 8.4 SSW 24 35 13 19 1015.8 1015.2 0.0
23/07:00am 22.0 17.2 5.4 34 8.3 SSW 20 28 11 15 1015.4 1014.8 0.0
23/06:30am 22.4 17.7 6.2 35 8.3 SSW 20 28 11 15 1014.8 1014.2 0.0
23/06:00am 23.0 17.9 5.9 33 8.7 SSW 22 32 12 17 1014.2 1013.6 0.0
23/05:30am 23.5 17.9 5.4 31 9.1 SSW 24 33 13 18 1013.9 1013.3 0.0
23/05:00am 21.9 17.3 -1.4 21 10.2 SSW 13 17 7 9 1013.7 1013.1 0.0
23/04:30am 25.1 19.5 -3.3 15 12.3 SW 17 28 9 15 1013.4 1012.8 0.0
23/04:00am 23.8 18.5 -3.5 16 11.7 SW 15 20 8 11 1012.4 1011.9 0.0
23/03:30am 22.2 17.0 -2.5 19 10.6 NE 15 17 8 9 1012.3 1011.8 0.0
23/03:00am 22.5 17.2 -3.7 17 11.1 NE 15 17 8 9 1012.3 1011.8 0.0
23/02:30am 22.6 17.3 -3.7 17 11.1 NNE 15 17 8 9 1012.4 1011.9 0.0
23/02:00am 22.3 17.3 -3.9 17 11.0 NE 13 15 7 8 1012.5 1012.0 0.0
23/01:30am 22.7 17.3 -4.4 16 11.3 NNE 15 17 8 9 1012.7 1012.2 0.0
23/01:00am 23.1 17.4 -4.1 16 11.4 NE 17 19 9 10 1012.7 1012.2 0.0
23/12:30am 26.3 21.0 -3.3 14 13.0 NNE 15 19 8 10 1012.9 1012.3 0.0
23/12:00am 28.3 22.7 -2.7 13 14.0 N 17 19 9 10 1012.7 1012.2 0.0
 
Date/Time
EDT
Temp
°C
App
Temp
°C
Dew
Point
°C
Rel
Hum
%
Delta-T
°C
Wind Press
QNH
hPa
Press
MSL
hPa
Rain since
9am
mm
Dir  Spd
km/h
Gust
km/h
Spd
kts
Gust
kts
22/11:30pm 28.6 23.0 -2.5 13 14.1 N 17 19 9 10 1012.7 1012.2 0.0
22/11:00pm 28.4 22.8 -2.6 13 14.0 N 17 19 9 10 1012.7 1012.2 0.0
22/10:30pm 28.4 23.2 -2.6 13 14.0 NNW 15 17 8 9 1012.5 1012.0 0.0
22/10:00pm 28.9 23.8 -2.3 13 14.3 N 15 17 8 9 1012.2 1011.7 0.0
22/09:30pm 29.2 24.5 -2.0 13 14.4 N 13 15 7 8 1011.8 1011.3 0.0
22/09:00pm 29.7 25.3 -2.7 12 14.8 N 11 13 6 7 1011.6 1011.1 0.0
22/08:30pm 31.6 27.2 -2.4 11 15.8 N 11 11 6 6 1011.2 1010.7 0.0
22/08:00pm 34.8 30.2 -1.3 10 17.5 NW 13 17 7 9 1010.9 1010.4 0.0
22/07:30pm 36.5 31.5 -1.4 9 18.5 NNW 15 24 8 13 1010.7 1010.2 0.0
22/07:00pm 37.2 31.5 -0.9 9 18.9 NW 19 28 10 15 1010.6 1010.1 0.0
22/06:30pm 38.1 32.5 -0.3 9 19.3 NNW 19 26 10 14 1010.5 1010.0 0.0
22/06:00pm 38.2 32.2 -1.8 8 19.7 N 20 35 11 19 1010.4 1009.9 0.0
22/05:30pm 38.7 33.3 -1.4 8 19.9 NNW 17 32 9 17 1010.3 1009.8 0.0
22/05:00pm 38.9 33.7 0.3 9 19.7 NNW 17 33 9 18 1010.3 1009.8 0.0
22/04:30pm 38.6 33.4 0.1 9 19.5 NNE 17 28 9 15 1010.5 1010.0 0.0
22/04:00pm 38.4 33.2 0.0 9 19.5 NNE 17 24 9 13 1011.0 1010.5 0.0
22/03:30pm 38.3 33.1 -0.1 9 19.4 NNW 17 28 9 15 1011.5 1011.0 0.0
22/03:00pm 37.9 32.6 -0.4 9 19.2 N 17 33 9 18 1012.0 1011.5 0.0
22/02:30pm 37.7 32.0 -0.6 9 19.1 N 19 30 10 16 1012.5 1012.0 0.0
22/02:00pm 36.5 30.9 0.0 10 18.3 N 19 32 10 17 1013.2 1012.6 0.0
22/01:30pm 36.4 29.8 -0.1 10 18.2 N 24 39 13 21 1013.7 1013.1 0.0
22/01:00pm 36.6 30.7 1.4 11 18.0 N 22 41 12 22 1014.0 1013.4 0.0
22/12:30pm 35.4 28.9 0.5 11 17.5 N 24 39 13 21 1014.4 1013.8 0.0
22/12:00pm 34.6 27.3 -0.1 11 17.1 N 28 37 15 20 1014.8 1014.2 0.0
22/11:30am 33.9 26.7 0.5 12 16.6 N 28 35 15 19 1014.9 1014.3 0.0
22/11:00am 32.7 25.7 -0.4 12 16.0 NNE 26 35 14 19 1015.1 1014.5 0.0
22/10:30am 31.5 25.3 -0.2 13 15.3 NNE 22 32 12 17 1015.3 1014.7 0.0
22/10:00am 29.0 22.3 -1.2 14 14.1 NNE 24 32 13 17 1015.3 1014.7 0.0
22/09:30am 26.6 20.3 -1.3 16 12.7 NE 22 30 12 16 1015.2 1014.6 0.0
22/09:00am 23.8 18.2 -2.7 17 11.5 NE 17 22 9 12 1015.1 1014.5 0.0
22/08:30am 20.8 15.3 -2.3 21 9.9 ENE 17 20 9 11 1015.0 1014.4 0.0
22/08:00am 18.8 14.0 -2.2 24 8.8 ENE 13 17 7 9 1014.7 1014.1 0.0
22/07:30am 17.4 11.9 -2.3 26 8.1 ENE 17 20 9 11 1014.5 1013.9 0.0
22/07:00am 16.5 11.3 -3.0 26 7.9 NE 15 20 8 11 1014.3 1013.7 0.0
22/06:30am 16.7 11.5 -2.9 26 7.9 NE 15 17 8 9 1014.0 1013.4 0.0
22/06:00am 16.7 11.9 -2.4 27 7.8 ENE 13 15 7 8 1013.6 1013.0 0.0
22/05:30am 16.6 11.9 -1.5 29 7.5 ENE 13 15 7 8 1013.4 1012.8 0.0
22/05:00am 13.3 8.7 -3.9 30 6.6 ENE 11 11 6 6 1013.4 1012.8 0.0
22/04:30am 13.3 8.7 -4.3 29 6.7 E 11 11 6 6 1013.5 1012.9 0.0
22/04:00am 14.3 10.8 -3.0 30 6.8 ESE 6 7 3 4 1013.7 1013.1 0.0
22/03:30am 15.6 13.2 -2.8 28 7.4 CALM 0 6 0 3 1013.9 1013.3 0.0
22/03:00am 17.6 13.3 -1.6 27 8.1 SE 11 13 6 7 1014.1 1013.5 0.0
22/02:30am 17.9 13.6 -1.9 26 8.3 SE 11 13 6 7 1014.3 1013.7 0.0
22/02:00am 19.0 14.0 -1.4 25 8.7 ESE 15 17 8 9 1014.6 1014.0 0.0
22/01:30am 17.4 12.6 -2.3 26 8.1 SE 13 15 7 8 1014.9 1014.3 0.0
22/01:00am 17.4 12.5 -3.4 24 8.4 SE 13 15 7 8 1015.1 1014.5 0.0
22/12:30am 18.0 13.2 -2.8 24 8.6 SE 13 13 7 7 1015.2 1014.6 0.0
22/12:00am 18.1 13.2 -3.3 23 8.7 SE 13 15 7 8 1015.4 1014.8 0.0
 
Date/Time
EDT
Temp
°C
App
Temp
°C
Dew
Point
°C
Rel
Hum
%
Delta-T
°C
Wind Press
QNH
hPa
Press
MSL
hPa
Rain since
9am
mm
Dir  Spd
km/h
Gust
km/h
Spd
kts
Gust
kts
21/11:30pm 18.3 13.8 -3.2 23 8.8 SE 11 13 6 7 1015.6 1015.0 0.0
21/11:00pm 18.9 14.4 -3.3 22 9.1 SE 11 11 6 6 1015.8 1015.2 0.0
21/10:30pm 19.9 15.3 -3.7 20 9.7 SE 11 13 6 7 1015.8 1015.2 0.0
21/10:00pm 21.0 16.3 -4.9 17 10.5 SE 11 13 6 7 1015.7 1015.1 0.0
21/09:30pm 21.9 17.2 -5.0 16 11.0 SE 11 13 6 7 1015.7 1015.1 0.0
21/09:00pm 22.9 18.2 -5.1 15 11.5 SE 11 11 6 6 1015.6 1015.0 0.0
21/08:30pm 25.2 20.9 -5.1 13 12.8 ESE 9 11 5 6 1015.4 1014.8 0.0
21/08:00pm 28.4 24.2 -3.7 12 14.2 E 9 13 5 7 1015.0 1014.4 0.0
21/07:30pm 30.0 25.5 -3.6 11 15.1 ESE 11 17 6 9 1014.8 1014.2 0.0
21/07:00pm 30.7 26.6 -3.1 11 15.4 ESE 9 13 5 7 1014.6 1014.0 0.0
21/06:30pm 31.0 25.8 -2.9 11 15.6 ESE 15 24 8 13 1014.6 1014.0 0.0
21/06:00pm 30.9 26.0 -3.0 11 15.5 ESE 13 20 7 11 1014.5 1013.9 0.0
21/05:30pm 31.5 28.4 -2.5 11 15.8 SSE 4 13 2 7 1014.7 1014.1 0.0
21/05:00pm 31.2 26.4 -2.7 11 15.6 SSE 13 20 7 11 1014.9 1014.3 0.0
21/04:30pm 30.7 26.2 -3.1 11 15.4 ESE 11 20 6 11 1015.3 1014.7 0.0
21/04:00pm 30.6 26.3 -2.0 12 15.1 E 11 19 6 10 1015.7 1015.1 0.0
21/03:30pm 30.6 26.1 -3.2 11 15.4 SSE 11 26 6 14 1016.0 1015.4 0.0
21/03:00pm 29.9 25.9 -2.6 12 14.9 SSE 9 17 5 9 1016.5 1015.9 0.0
21/02:30pm 30.1 25.8 -1.3 13 14.7 S 11 20 6 11 1017.0 1016.4 0.0
21/02:00pm 29.1 24.7 -2.1 13 14.3 SE 11 24 6 13 1017.4 1016.8 0.0
21/01:30pm 28.4 24.5 -1.6 14 13.8 E 9 17 5 9 1017.9 1017.3 0.0
21/01:00pm 27.5 23.1 -2.3 14 13.4 SSE 11 22 6 12 1018.4 1017.8 0.0
21/12:30pm 27.0 22.3 -1.8 15 13.1 ENE 13 20 7 11 1018.8 1018.2 0.0

Other Formats:

Comma delimited format used in spreadsheet applications
http://www.bom.gov.au/fwo/IDN60801/IDN60801.95695.axf

JavaScript Object Notation format (JSON) in row-major order
http://www.bom.gov.au/fwo/IDN60801/IDN60801.95695.json